金門航空站 - ATIS

METAR RCBS 230030Z 22013KT 4000 -RA BR SCT003 BKN008 FEW012CB BKN040 25/25 Q1009 NOSIG RMK 23011KT/R06 CB NW A2980(C)=

站台狀態:Online
最後更新:2018-06-23 08:45:01